Time;durP1;ratioP1;P1;durP2;ratioP2;P2;SDS_P1;SDS_P2;PMS_P1;PMS_P2;Temp;Humidity;BMP_temperature;BMP_pressure;BME280_temperature;BME280_humidity;BME280_pressure;Samples;Min_cycle;Max_cycle;Signal;HPM_P1;HPM_P2
2023/03/09 00:01:38;;;;;;;;;8.00;7.00;;;;;20.47;51.69;98960.58;109920;1250;23189;-38
2023/03/09 00:04:06;;;;;;;;;7.00;7.00;;;;;20.46;51.57;98960.19;109968;1266;22667;-38
2023/03/09 00:06:33;;;;;;;;;7.00;7.00;;;;;20.47;51.67;98954.36;110017;1266;18588;-38
2023/03/09 00:09:00;;;;;;;;;7.00;7.00;;;;;20.46;51.50;98948.46;110013;1266;21809;-38
2023/03/09 00:11:28;;;;;;;;;5.00;5.00;;;;;20.47;51.59;98952.56;110007;1266;19553;-39
2023/03/09 00:13:55;;;;;;;;;4.67;4.67;;;;;20.46;51.54;98943.20;110027;1266;18669;-39
2023/03/09 00:16:23;;;;;;;;;7.00;7.00;;;;;20.47;51.59;98938.75;110029;1266;21394;-38
2023/03/09 00:18:51;;;;;;;;;6.00;4.00;;;;;20.46;51.72;98940.80;110031;1266;19684;-41
2023/03/09 00:21:34;;;;;;;;;8.00;5.00;;;;;20.46;51.52;98942.98;110057;1266;20954;-40
2023/03/09 00:24:02;;;;;;;;;7.00;6.00;;;;;20.47;51.50;98941.69;110032;1266;20760;-40
2023/03/09 00:26:29;;;;;;;;;6.00;6.00;;;;;20.47;51.45;98939.63;109991;1266;18406;-40
2023/03/09 00:28:57;;;;;;;;;4.00;4.00;;;;;20.47;51.46;98942.19;110031;1266;20029;-40
2023/03/09 00:31:24;;;;;;;;;7.00;6.00;;;;;20.47;51.46;98944.38;110029;1253;20806;-40
2023/03/09 00:33:52;;;;;;;;;7.00;7.00;;;;;20.47;51.38;98951.06;110069;1266;18370;-38
2023/03/09 00:36:19;;;;;;;;;4.00;3.00;;;;;20.47;51.54;98951.27;110034;1260;21792;-39
2023/03/09 00:38:47;;;;;;;;;6.00;6.00;;;;;20.47;51.50;98952.70;110036;1253;20900;-40
2023/03/09 00:41:14;;;;;;;;;6.00;4.00;;;;;20.47;51.36;98948.60;110028;1250;18577;-39
2023/03/09 00:43:42;;;;;;;;;4.33;4.00;;;;;20.46;51.55;98942.98;110028;1266;20168;-39
2023/03/09 00:46:09;;;;;;;;;5.50;5.50;;;;;20.46;51.37;98933.45;110038;1266;19305;-38
2023/03/09 00:48:36;;;;;;;;;7.00;7.00;;;;;20.46;51.51;98929.83;110040;1250;19581;-38
2023/03/09 00:51:04;;;;;;;;;4.67;3.67;;;;;20.46;51.46;98940.52;110021;1266;20887;-38
2023/03/09 00:53:31;;;;;;;;;4.00;4.00;;;;;20.46;51.42;98941.26;110066;1266;20892;-39
2023/03/09 00:55:59;;;;;;;;;6.00;4.00;;;;;20.45;51.53;98940.67;110009;1254;22597;-39
2023/03/09 00:58:26;;;;;;;;;4.00;4.00;;;;;20.45;51.44;98945.27;110042;1266;20004;-40
2023/03/09 01:00:54;;;;;;;;;6.00;6.00;;;;;20.45;51.41;98949.47;110042;1253;20811;-41
2023/03/09 01:03:21;;;;;;;;;4.00;4.00;;;;;20.46;51.43;98957.17;110040;1266;23291;-39
2023/03/09 01:05:48;;;;;;;;;7.00;7.00;;;;;20.45;51.39;98955.27;109990;1266;18661;-41
2023/03/09 01:08:16;;;;;;;;;4.00;4.00;;;;;20.45;51.56;98955.99;110027;1266;19524;-39
2023/03/09 01:10:43;;;;;;;;;9.00;4.00;;;;;20.45;51.27;98960.16;110046;1259;18455;-39
2023/03/09 01:13:11;;;;;;;;;6.00;6.00;;;;;20.45;51.33;98956.16;110039;1253;20134;-39
2023/03/09 01:15:38;;;;;;;;;4.00;4.00;;;;;20.46;51.42;98953.23;110050;1266;19322;-40
2023/03/09 01:18:05;;;;;;;;;7.00;6.00;;;;;20.45;51.35;98948.22;110036;1266;19587;-39
2023/03/09 01:20:33;;;;;;;;;6.50;6.50;;;;;20.45;51.34;98946.95;110022;1266;18941;-39
2023/03/09 01:23:00;;;;;;;;;4.00;4.00;;;;;20.46;51.07;98937.27;110028;1266;21919;-39
2023/03/09 01:25:28;;;;;;;;;7.00;6.00;;;;;20.44;51.07;98931.45;110015;1266;18398;-40
2023/03/09 01:27:55;;;;;;;;;6.00;6.00;;;;;20.44;51.07;98923.33;110047;1259;20054;-39
2023/03/09 01:30:23;;;;;;;;;7.00;6.00;;;;;20.44;51.10;98921.48;110011;1266;19491;-39
2023/03/09 01:32:50;;;;;;;;;6.50;6.00;;;;;20.45;51.26;98923.07;110037;1252;19598;-39
2023/03/09 01:35:18;;;;;;;;;4.00;4.00;;;;;20.44;51.20;98922.02;110005;1266;20331;-39
2023/03/09 01:37:45;;;;;;;;;4.00;4.00;;;;;20.44;51.09;98911.02;110029;1253;21273;-37
2023/03/09 01:40:13;;;;;;;;;6.00;6.00;;;;;20.44;50.95;98911.02;110027;1260;20687;-38
2023/03/09 01:42:40;;;;;;;;;6.00;6.00;;;;;20.45;50.99;98912.14;110030;1254;20132;-38
2023/03/09 01:45:07;;;;;;;;;4.00;4.00;;;;;20.45;50.98;98912.18;110008;1266;22557;-38
2023/03/09 01:47:35;;;;;;;;;4.00;4.00;;;;;20.45;51.23;98911.81;109930;1250;19547;-38
2023/03/09 01:50:04;;;;;;;;;6.00;6.00;;;;;20.44;50.97;98916.21;110012;1250;19862;-40
2023/03/09 01:52:32;;;;;;;;;6.00;6.00;;;;;20.44;50.85;98913.16;110053;1266;20922;-39
2023/03/09 01:54:59;;;;;;;;;7.00;6.00;;;;;20.45;50.79;98912.54;110039;1250;22556;-41
2023/03/09 01:57:26;;;;;;;;;4.00;4.00;;;;;20.45;50.85;98907.63;110010;1266;20090;-39
2023/03/09 01:59:54;;;;;;;;;6.00;6.00;;;;;20.44;50.85;98906.63;109969;1250;22747;-39
2023/03/09 02:02:21;;;;;;;;;6.00;6.00;;;;;20.43;50.80;98901.47;110046;1266;19480;-41
2023/03/09 02:04:49;;;;;;;;;4.00;4.00;;;;;20.44;50.76;98893.55;110034;1266;19151;-40
2023/03/09 02:07:16;;;;;;;;;6.00;4.00;;;;;20.44;50.52;98891.30;110029;1250;20803;-39
2023/03/09 02:09:44;;;;;;;;;3.00;3.00;;;;;20.44;50.65;98896.27;110024;1266;19545;-44
2023/03/09 02:12:11;;;;;;;;;4.00;4.00;;;;;20.44;50.74;98899.96;110027;1266;19980;-39
2023/03/09 02:14:38;;;;;;;;;5.00;5.00;;;;;20.44;50.94;98899.26;110003;1266;19345;-40
2023/03/09 02:17:06;;;;;;;;;7.00;7.00;;;;;20.43;50.61;98896.20;110041;1266;18283;-39
2023/03/09 02:19:33;;;;;;;;;7.00;6.00;;;;;20.43;50.56;98891.34;110051;1266;18685;-39
2023/03/09 02:22:01;;;;;;;;;7.00;6.00;;;;;20.43;50.69;98892.77;110040;1266;20775;-39
2023/03/09 02:24:28;;;;;;;;;4.00;4.00;;;;;20.43;51.07;98898.63;110026;1266;18513;-40
2023/03/09 02:26:56;;;;;;;;;6.00;6.00;;;;;20.43;50.78;98898.64;110040;1266;20008;-39
2023/03/09 02:29:23;;;;;;;;;6.50;6.00;;;;;20.44;50.61;98896.71;110039;1250;20880;-40
2023/03/09 02:31:50;;;;;;;;;6.00;6.00;;;;;20.43;50.71;98896.79;110021;1266;21785;-39
2023/03/09 02:34:18;;;;;;;;;6.67;6.00;;;;;20.42;50.80;98896.92;110051;1266;18626;-39
2023/03/09 02:36:45;;;;;;;;;6.00;6.00;;;;;20.43;50.82;98904.45;110024;1253;21728;-39
2023/03/09 02:39:13;;;;;;;;;4.00;4.00;;;;;20.44;50.50;98911.60;110027;1266;19072;-39
2023/03/09 02:41:40;;;;;;;;;4.00;4.00;;;;;20.43;50.49;98918.81;110036;1250;20085;-39
2023/03/09 02:44:08;;;;;;;;;9.00;6.00;;;;;20.43;50.64;98929.66;110020;1266;21017;-40
2023/03/09 02:46:35;;;;;;;;;4.00;4.00;;;;;20.43;50.89;98932.00;110034;1250;22639;-40
2023/03/09 02:49:02;;;;;;;;;4.00;4.00;;;;;20.43;50.59;98932.09;110046;1250;18832;-38
2023/03/09 02:51:30;;;;;;;;;4.00;4.00;;;;;20.42;50.57;98934.27;110045;1266;19374;-38
2023/03/09 02:53:57;;;;;;;;;8.00;6.00;;;;;20.43;50.46;98933.63;110023;1266;22416;-38
2023/03/09 02:56:25;;;;;;;;;4.00;4.00;;;;;20.43;50.43;98939.77;110029;1266;18631;-41
2023/03/09 02:58:52;;;;;;;;;7.00;6.00;;;;;20.42;50.61;98932.13;110031;1261;19330;-39
2023/03/09 03:01:19;;;;;;;;;4.00;4.00;;;;;20.43;50.51;98937.61;109979;1266;22123;-38
2023/03/09 03:03:47;;;;;;;;;5.00;5.00;;;;;20.43;50.24;98934.77;110035;1266;19989;-40
2023/03/09 03:06:14;;;;;;;;;4.00;3.00;;;;;20.43;50.35;98938.03;110021;1266;19583;-38
2023/03/09 03:08:42;;;;;;;;;4.00;4.00;;;;;20.42;50.57;98939.41;110019;1266;18866;-39
2023/03/09 03:11:09;;;;;;;;;4.00;4.00;;;;;20.43;50.45;98945.11;110008;1266;18854;-39
2023/03/09 03:13:37;;;;;;;;;8.00;7.00;;;;;20.43;50.31;98944.52;109914;1250;22472;-39
2023/03/09 03:16:04;;;;;;;;;4.00;4.00;;;;;20.43;50.25;98940.21;110060;1266;18427;-41
2023/03/09 03:18:31;;;;;;;;;4.00;4.00;;;;;20.42;50.37;98944.15;110051;1266;18603;-40
2023/03/09 03:20:59;;;;;;;;;6.00;6.00;;;;;20.43;50.36;98947.29;110061;1266;22118;-40
2023/03/09 03:26:27;;;;;;;;;6.00;6.00;;;;;20.41;50.23;98946.79;110065;1250;18614;-39
2023/03/09 03:28:55;;;;;;;;;6.50;6.00;;;;;20.42;50.18;98948.84;110065;1253;21292;-39
2023/03/09 03:31:22;;;;;;;;;6.00;6.00;;;;;20.43;50.16;98952.38;110056;1266;18383;-38
2023/03/09 03:33:50;;;;;;;;;4.00;4.00;;;;;20.42;50.22;98953.02;110047;1266;19990;-39
2023/03/09 03:36:17;;;;;;;;;7.00;7.00;;;;;20.41;50.18;98950.44;110038;1253;20783;-40
2023/03/09 03:38:44;;;;;;;;;6.00;6.00;;;;;20.42;50.33;98952.31;110059;1254;18598;-39
2023/03/09 03:41:12;;;;;;;;;7.00;7.00;;;;;20.41;50.13;98955.38;110082;1266;20002;-39
2023/03/09 03:43:39;;;;;;;;;6.00;4.00;;;;;20.41;50.09;98954.99;110057;1250;22786;-40
2023/03/09 03:46:07;;;;;;;;;6.00;4.00;;;;;20.42;50.42;98954.91;110064;1259;23360;-39
2023/03/09 03:48:34;;;;;;;;;4.00;4.00;;;;;20.41;50.20;98951.31;110042;1254;20194;-40
2023/03/09 03:51:02;;;;;;;;;6.33;6.00;;;;;20.41;50.23;98951.73;110055;1253;20715;-39
2023/03/09 03:53:29;;;;;;;;;6.00;6.00;;;;;20.41;49.96;98952.99;109989;1250;21920;-39
2023/03/09 03:55:56;;;;;;;;;4.00;4.00;;;;;20.41;50.13;98956.97;109980;1266;19995;-39
2023/03/09 03:58:24;;;;;;;;;6.00;6.00;;;;;20.42;49.98;98958.72;110097;1254;20937;-39
2023/03/09 04:00:51;;;;;;;;;3.00;3.00;;;;;20.41;50.33;98953.54;110067;1266;18402;-39
2023/03/09 04:03:19;;;;;;;;;6.00;6.00;;;;;20.40;50.25;98953.67;110025;1266;21426;-42
2023/03/09 04:05:46;;;;;;;;;4.00;4.00;;;;;20.41;50.47;98959.46;110032;1266;19456;-39
2023/03/09 04:08:14;;;;;;;;;4.00;4.00;;;;;20.41;50.37;98959.02;110032;1266;18368;-39
2023/03/09 04:10:41;;;;;;;;;9.00;7.00;;;;;20.40;50.04;98956.88;110045;1250;20002;-40
2023/03/09 04:13:08;;;;;;;;;3.00;3.00;;;;;20.41;50.12;98954.41;110028;1252;22080;-39
2023/03/09 04:15:36;;;;;;;;;6.50;6.50;;;;;20.41;50.27;98949.14;110020;1266;18688;-39
2023/03/09 04:18:04;;;;;;;;;6.50;4.00;;;;;20.41;50.14;98948.84;109998;1266;21203;-40
2023/03/09 04:20:31;;;;;;;;;6.00;6.00;;;;;20.41;49.97;98946.84;109999;1250;21054;-39
2023/03/09 04:22:59;;;;;;;;;4.00;4.00;;;;;20.41;49.91;98949.06;109909;1266;18561;-39
2023/03/09 04:25:26;;;;;;;;;7.00;7.00;;;;;20.41;50.17;98952.83;110019;1266;20132;-39
2023/03/09 04:27:54;;;;;;;;;6.00;6.00;;;;;20.40;50.12;98957.81;110049;1266;20740;-39
2023/03/09 04:30:22;;;;;;;;;4.00;4.00;;;;;20.41;50.12;98963.71;110021;1266;23014;-39
2023/03/09 04:32:49;;;;;;;;;4.00;4.00;;;;;20.41;50.14;98971.49;109996;1266;19985;-39
2023/03/09 04:35:17;;;;;;;;;6.00;6.00;;;;;20.41;50.02;98978.90;110033;1266;20765;-38
2023/03/09 04:37:44;;;;;;;;;5.33;5.33;;;;;20.41;50.07;98980.78;110042;1266;19846;-39
2023/03/09 04:40:12;;;;;;;;;4.00;3.00;;;;;20.41;50.09;98981.13;110019;1266;19980;-39
2023/03/09 04:42:39;;;;;;;;;9.00;4.00;;;;;20.40;50.08;98973.63;110037;1266;20689;-39
2023/03/09 04:45:07;;;;;;;;;10.00;7.00;;;;;20.40;49.83;98960.82;110045;1266;19535;-39
2023/03/09 04:47:34;;;;;;;;;7.00;6.00;;;;;20.40;49.85;98951.36;110014;1266;18699;-40
2023/03/09 04:50:02;;;;;;;;;4.00;4.00;;;;;20.40;49.93;98948.27;110009;1266;20714;-39
2023/03/09 04:52:29;;;;;;;;;4.00;4.00;;;;;20.39;49.96;98952.12;110052;1251;18536;-39
2023/03/09 04:54:57;;;;;;;;;7.00;6.00;;;;;20.39;49.77;98955.24;110046;1266;20320;-39
2023/03/09 04:57:24;;;;;;;;;4.00;4.00;;;;;20.39;49.95;98955.20;110030;1250;20825;-41
2023/03/09 04:59:51;;;;;;;;;6.00;4.00;;;;;20.39;50.10;98953.58;110022;1266;19097;-38
2023/03/09 05:02:19;;;;;;;;;4.67;4.67;;;;;20.39;50.38;98953.10;110035;1266;18651;-39
2023/03/09 05:04:46;;;;;;;;;4.00;4.00;;;;;20.38;50.25;98948.35;110054;1266;19618;-39
2023/03/09 05:07:14;;;;;;;;;3.00;3.00;;;;;20.37;50.61;98939.81;110007;1266;18397;-39
2023/03/09 05:09:41;;;;;;;;;4.00;4.00;;;;;20.38;50.55;98939.77;110038;1250;20015;-38
2023/03/09 05:12:09;;;;;;;;;4.00;4.00;;;;;20.37;50.45;98938.48;110031;1252;23216;-39
2023/03/09 05:14:36;;;;;;;;;3.00;3.00;;;;;20.37;50.30;98944.08;110034;1251;19630;-38
2023/03/09 05:17:03;;;;;;;;;4.00;4.00;;;;;20.38;50.46;98938.51;110011;1254;20061;-39
2023/03/09 05:19:31;;;;;;;;;3.00;3.00;;;;;20.38;50.56;98940.06;110003;1266;20731;-39
2023/03/09 05:21:58;;;;;;;;;5.00;4.00;;;;;20.38;50.34;98946.45;110058;1266;18288;-39
2023/03/09 05:24:26;;;;;;;;;3.50;3.50;;;;;20.37;50.38;98942.38;110005;1266;20170;-39
2023/03/09 05:26:53;;;;;;;;;4.00;4.00;;;;;20.36;50.37;98940.63;110031;1260;23970;-39
2023/03/09 05:29:20;;;;;;;;;4.00;4.00;;;;;20.36;50.45;98948.58;110042;1266;19556;-39
2023/03/09 05:31:48;;;;;;;;;5.33;4.00;;;;;20.36;50.56;98946.95;110036;1266;18844;-39
2023/03/09 05:34:17;;;;;;;;;4.00;4.00;;;;;20.36;50.47;98946.81;110023;1266;20750;-39
2023/03/09 05:36:44;;;;;;;;;4.00;4.00;;;;;20.37;50.45;98946.18;110010;1266;19670;-39
2023/03/09 05:39:12;;;;;;;;;7.00;6.00;;;;;20.36;50.25;98948.23;110039;1266;20145;-38
2023/03/09 05:41:39;;;;;;;;;6.00;4.00;;;;;20.37;50.13;98947.34;110060;1266;19390;-39
2023/03/09 05:44:07;;;;;;;;;4.00;4.00;;;;;20.36;50.51;98941.05;110050;1266;18618;-39
2023/03/09 05:46:34;;;;;;;;;4.00;4.00;;;;;20.36;50.39;98939.36;109959;1266;18625;-37
2023/03/09 05:49:02;;;;;;;;;3.00;3.00;;;;;20.36;50.19;98938.45;110057;1266;20718;-38
2023/03/09 05:51:29;;;;;;;;;4.00;4.00;;;;;20.37;50.33;98940.70;110048;1250;19977;-39
2023/03/09 05:53:56;;;;;;;;;4.00;4.00;;;;;20.36;50.12;98942.80;110053;1266;18697;-39
2023/03/09 05:56:24;;;;;;;;;4.00;3.00;;;;;20.36;50.30;98946.06;110012;1266;20754;-39
2023/03/09 05:58:51;;;;;;;;;3.00;3.00;;;;;20.36;50.12;98952.39;109996;1266;18435;-38
2023/03/09 06:01:19;;;;;;;;;3.00;3.00;;;;;20.37;50.33;98953.34;110026;1266;19983;-39
2023/03/09 06:03:46;;;;;;;;;3.00;3.00;;;;;20.44;50.74;98955.48;110034;1266;20684;-39
2023/03/09 06:06:14;;;;;;;;;4.00;4.00;;;;;20.48;51.10;98955.82;110055;1266;18455;-39
2023/03/09 06:08:41;;;;;;;;;6.00;4.00;;;;;20.49;51.46;98957.95;110006;1266;20007;-39
2023/03/09 06:11:09;;;;;;;;;4.00;4.00;;;;;20.47;51.68;98958.94;110039;1266;19434;-39
2023/03/09 06:13:36;;;;;;;;;3.00;3.00;;;;;20.44;51.75;98959.86;110028;1250;19566;-40
2023/03/09 06:16:04;;;;;;;;;3.00;3.00;;;;;20.41;51.81;98957.09;110030;1266;18732;-40
2023/03/09 06:18:31;;;;;;;;;3.00;3.00;;;;;20.42;51.83;98965.21;110021;1250;19254;-39
2023/03/09 06:20:59;;;;;;;;;3.00;3.00;;;;;20.42;52.00;98969.02;110014;1266;19597;-39
2023/03/09 06:23:26;;;;;;;;;3.00;3.00;;;;;20.41;51.96;98972.05;109988;1251;20037;-39
2023/03/09 06:25:53;;;;;;;;;6.00;4.00;;;;;20.41;51.76;98979.45;110015;1266;19954;-39
2023/03/09 06:28:21;;;;;;;;;3.00;3.00;;;;;20.41;51.65;98987.73;110050;1250;18551;-39
2023/03/09 06:30:48;;;;;;;;;4.00;4.00;;;;;20.40;51.82;98992.10;110038;1254;21524;-40
2023/03/09 06:33:16;;;;;;;;;3.00;3.00;;;;;20.40;51.60;98991.21;110032;1266;20965;-39
2023/03/09 06:35:43;;;;;;;;;4.00;3.50;;;;;20.41;51.94;98992.21;110014;1250;21997;-39
2023/03/09 06:38:11;;;;;;;;;4.00;4.00;;;;;20.41;51.78;98997.28;110052;1266;18617;-40
2023/03/09 06:40:38;;;;;;;;;3.00;3.00;;;;;20.40;51.71;98992.17;110018;1250;20783;-39
2023/03/09 06:43:06;;;;;;;;;3.00;3.00;;;;;20.40;51.51;98984.34;110001;1266;18319;-39
2023/03/09 06:45:33;;;;;;;;;2.00;2.00;;;;;20.40;51.74;98979.04;110009;1251;18573;-44
2023/03/09 06:48:01;;;;;;;;;4.00;4.00;;;;;20.39;51.67;98972.28;110020;1266;20746;-39
2023/03/09 06:50:28;;;;;;;;;3.00;3.00;;;;;20.39;51.73;98967.89;110027;1251;19514;-39
2023/03/09 06:52:55;;;;;;;;;3.00;3.00;;;;;20.39;51.73;98969.56;110054;1252;20252;-39
2023/03/09 06:55:23;;;;;;;;;3.00;3.00;;;;;20.39;51.60;98976.31;110050;1252;22049;-39
2023/03/09 06:57:50;;;;;;;;;3.00;3.00;;;;;20.40;51.59;98975.18;110006;1266;19560;-39
2023/03/09 07:00:18;;;;;;;;;3.00;3.00;;;;;20.39;51.49;98977.42;110011;1266;19863;-39
2023/03/09 07:02:45;;;;;;;;;4.00;4.00;;;;;20.38;51.54;98979.27;110048;1266;20756;-39
2023/03/09 07:05:13;;;;;;;;;3.00;3.00;;;;;20.39;51.68;98985.89;110028;1254;20052;-39
2023/03/09 07:07:42;;;;;;;;;4.00;4.00;;;;;20.39;51.48;98986.77;110015;1266;21951;-39
2023/03/09 07:10:09;;;;;;;;;4.00;3.00;;;;;20.39;51.64;98982.63;110008;1254;22373;-39
2023/03/09 07:12:37;;;;;;;;;3.00;3.00;;;;;20.39;51.66;98983.13;109920;1250;18420;-39
2023/03/09 07:15:04;;;;;;;;;4.00;3.50;;;;;20.44;51.37;98988.67;109938;1250;22121;-40
2023/03/09 07:17:32;;;;;;;;;4.00;4.00;;;;;20.43;51.23;98996.59;110033;1266;21065;-39
2023/03/09 07:19:59;;;;;;;;;3.50;3.50;;;;;20.42;51.17;98996.34;110028;1266;21989;-39
2023/03/09 07:22:27;;;;;;;;;3.00;3.00;;;;;20.41;51.00;98992.66;110008;1266;22677;-39
2023/03/09 07:24:54;;;;;;;;;3.00;3.00;;;;;20.40;51.15;98991.66;110061;1250;19522;-39
2023/03/09 07:27:22;;;;;;;;;4.00;3.00;;;;;20.39;51.13;98997.73;109985;1266;22441;-39
2023/03/09 07:29:49;;;;;;;;;3.00;3.00;;;;;20.39;51.34;99002.19;110037;1252;20968;-40
2023/03/09 07:32:16;;;;;;;;;3.00;3.00;;;;;20.39;51.42;98996.61;110044;1254;20869;-39
2023/03/09 07:34:44;;;;;;;;;3.50;3.50;;;;;20.38;51.25;99003.44;110036;1266;20810;-39
2023/03/09 07:37:11;;;;;;;;;4.00;4.00;;;;;20.39;51.48;99004.77;110035;1266;19026;-39
2023/03/09 07:39:39;;;;;;;;;4.00;4.00;;;;;20.40;51.44;99005.45;110014;1266;19538;-41
2023/03/09 07:42:06;;;;;;;;;3.00;3.00;;;;;20.38;51.33;99005.74;110034;1266;20016;-39
2023/03/09 07:44:34;;;;;;;;;3.00;3.00;;;;;20.38;51.47;99005.65;110019;1252;20036;-39
2023/03/09 07:47:02;;;;;;;;;3.00;3.00;;;;;20.37;51.30;99004.41;110014;1266;20865;-39
2023/03/09 07:49:29;;;;;;;;;3.00;3.00;;;;;20.38;51.32;99012.39;109936;1266;20525;-39
2023/03/09 07:51:57;;;;;;;;;5.00;4.00;;;;;20.37;51.47;99026.73;109899;1266;18960;-40
2023/03/09 07:54:25;;;;;;;;;3.00;3.00;;;;;20.39;51.61;99027.55;109931;1251;22641;-40
2023/03/09 07:56:53;;;;;;;;;3.00;3.00;;;;;20.40;51.56;99028.92;109922;1266;18230;-40
2023/03/09 07:59:20;;;;;;;;;7.00;6.00;;;;;20.41;51.52;99028.59;109950;1266;19866;-40
2023/03/09 08:01:48;;;;;;;;;3.00;3.00;;;;;20.41;51.06;99035.88;109993;1253;20806;-40
2023/03/09 08:04:16;;;;;;;;;4.00;3.00;;;;;20.40;50.96;99033.88;110039;1266;23122;-39
2023/03/09 08:06:44;;;;;;;;;3.00;3.00;;;;;20.41;51.31;99035.29;110032;1260;23860;-39
2023/03/09 08:09:12;;;;;;;;;4.00;4.00;;;;;20.44;51.30;99036.15;109999;1266;22034;-39
2023/03/09 08:11:39;;;;;;;;;3.00;3.00;;;;;20.45;51.44;99036.80;110041;1266;18745;-40
2023/03/09 08:14:07;;;;;;;;;3.00;3.00;;;;;20.47;52.06;99041.95;110026;1266;18745;-39
2023/03/09 08:16:34;;;;;;;;;4.00;4.00;;;;;20.47;52.32;99044.46;110024;1250;19376;-40
2023/03/09 08:19:01;;;;;;;;;3.00;3.00;;;;;20.47;52.44;99045.12;110051;1250;22680;-40
2023/03/09 08:21:29;;;;;;;;;4.00;3.00;;;;;20.49;53.07;99052.32;110065;1266;22233;-40
2023/03/09 08:23:57;;;;;;;;;4.00;4.00;;;;;20.51;53.22;99060.05;110071;1266;20773;-41
2023/03/09 08:26:24;;;;;;;;;3.00;3.00;;;;;20.48;52.90;99063.16;109895;1254;205148;-40
2023/03/09 08:28:52;;;;;;;;;3.00;3.00;;;;;20.50;52.58;99061.86;110065;1266;18622;-39
2023/03/09 08:31:19;;;;;;;;;3.50;3.00;;;;;20.52;52.72;99066.25;110010;1266;19757;-40
2023/03/09 08:33:47;;;;;;;;;3.33;3.33;;;;;20.51;52.28;99068.22;110018;1266;19541;-39
2023/03/09 08:36:15;;;;;;;;;4.00;3.50;;;;;20.51;52.37;99066.05;110029;1253;21205;-40
2023/03/09 08:38:42;;;;;;;;;3.00;3.00;;;;;20.51;52.52;99069.14;110026;1266;22933;-40
2023/03/09 08:41:10;;;;;;;;;3.00;3.00;;;;;20.52;52.66;99068.47;110055;1254;19846;-39
2023/03/09 08:43:37;;;;;;;;;3.00;3.00;;;;;20.54;52.72;99071.48;110075;1250;19866;-39
2023/03/09 08:46:05;;;;;;;;;3.00;3.00;;;;;20.54;52.80;99074.48;110064;1266;20602;-40
2023/03/09 08:48:32;;;;;;;;;4.00;4.00;;;;;20.56;52.73;99073.15;110050;1266;18482;-40
2023/03/09 08:50:59;;;;;;;;;3.00;3.00;;;;;20.57;52.92;99078.92;110018;1266;18844;-39
2023/03/09 08:53:27;;;;;;;;;3.00;3.00;;;;;20.56;52.91;99078.84;110026;1254;21000;-39
2023/03/09 08:55:54;;;;;;;;;4.00;4.00;;;;;20.56;53.05;99080.10;110041;1266;21136;-41
2023/03/09 08:58:22;;;;;;;;;3.00;3.00;;;;;20.56;52.98;99082.48;110070;1266;18678;-39
2023/03/09 09:00:49;;;;;;;;;3.67;3.67;;;;;20.55;53.13;99084.95;110007;1259;21976;-40
2023/03/09 09:03:17;;;;;;;;;4.00;4.00;;;;;20.56;53.25;99084.28;110013;1266;19525;-40
2023/03/09 09:05:44;;;;;;;;;3.00;3.00;;;;;20.59;53.35;99088.08;110005;1250;20043;-39
2023/03/09 09:08:12;;;;;;;;;2.67;2.67;;;;;20.59;53.39;99087.16;109944;1266;20695;-39
2023/03/09 09:10:39;;;;;;;;;2.00;2.00;;;;;20.59;53.45;99088.59;110035;1266;19755;-39
2023/03/09 09:13:07;;;;;;;;;5.50;5.50;;;;;20.58;53.32;99092.75;110022;1266;20291;-39
2023/03/09 09:15:36;;;;;;;;;4.00;4.00;;;;;20.58;53.32;99090.93;110040;1254;19373;-39
2023/03/09 09:18:03;;;;;;;;;4.00;4.00;;;;;20.59;53.38;99094.37;110009;1266;20684;-39
2023/03/09 09:20:31;;;;;;;;;2.00;2.00;;;;;20.59;53.62;99102.41;110041;1266;20550;-40
2023/03/09 09:22:58;;;;;;;;;4.00;4.00;;;;;20.59;53.63;99104.29;109901;1266;20732;-37
2023/03/09 09:25:26;;;;;;;;;4.00;4.00;;;;;20.58;53.54;99104.33;109991;1266;18325;-37
2023/03/09 09:27:54;;;;;;;;;5.00;5.00;;;;;20.57;53.66;99110.23;110023;1266;20013;-38
2023/03/09 09:30:22;;;;;;;;;2.00;2.00;;;;;20.56;53.52;99115.42;110025;1266;20748;-38
2023/03/09 09:32:49;;;;;;;;;4.00;4.00;;;;;20.56;53.72;99113.29;110017;1260;18529;-37
2023/03/09 09:35:17;;;;;;;;;3.00;2.50;;;;;20.58;53.55;99117.34;110009;1266;22617;-38
2023/03/09 09:37:44;;;;;;;;;4.00;4.00;;;;;20.60;53.67;99119.45;110054;1254;21105;-38
2023/03/09 09:40:12;;;;;;;;;4.00;4.00;;;;;20.62;53.46;99120.27;110004;1266;19687;-37
2023/03/09 09:42:40;;;;;;;;;4.00;4.00;;;;;20.63;53.62;99113.27;110007;1254;21465;-38
2023/03/09 09:45:07;;;;;;;;;2.50;2.50;;;;;20.62;53.55;99114.70;110044;1250;21105;-38
2023/03/09 09:47:35;;;;;;;;;4.00;3.00;;;;;20.61;53.42;99120.18;110044;1266;22213;-41
2023/03/09 09:50:02;;;;;;;;;3.00;3.00;;;;;20.62;53.63;99122.45;110047;1266;18670;-41
2023/03/09 09:52:30;;;;;;;;;4.00;3.00;;;;;20.62;53.60;99119.56;110043;1266;19865;-39
2023/03/09 09:54:57;;;;;;;;;4.00;4.00;;;;;20.64;53.36;99128.52;110023;1266;23021;-40
2023/03/09 09:57:25;;;;;;;;;2.00;2.00;;;;;20.65;52.97;99125.88;110041;1266;20003;-39
2023/03/09 09:59:52;;;;;;;;;2.00;2.00;;;;;20.64;53.24;99127.30;110053;1266;20587;-38
2023/03/09 10:02:19;;;;;;;;;3.00;3.00;;;;;20.62;53.61;99136.27;110046;1254;19560;-39
2023/03/09 10:04:47;;;;;;;;;4.00;4.00;;;;;20.63;53.34;99138.81;110025;1266;18582;-38
2023/03/09 10:07:15;;;;;;;;;2.50;2.50;;;;;20.64;53.36;99131.27;110008;1266;19493;-42
2023/03/09 10:09:42;;;;;;;;;3.00;2.50;;;;;20.64;53.23;99130.90;110024;1253;22807;-39
2023/03/09 10:12:09;;;;;;;;;3.00;3.00;;;;;20.65;53.31;99138.90;110041;1266;18609;-39
2023/03/09 10:14:37;;;;;;;;;4.00;4.00;;;;;20.67;53.22;99136.45;110024;1253;21115;-39
2023/03/09 10:17:05;;;;;;;;;2.00;2.00;;;;;20.69;53.10;99134.90;110023;1266;18504;-40
2023/03/09 10:19:32;;;;;;;;;4.00;4.00;;;;;20.68;53.34;99133.73;110036;1266;18660;-38
2023/03/09 10:22:00;;;;;;;;;3.00;3.00;;;;;20.65;53.43;99138.14;110075;1266;20742;-39
2023/03/09 10:24:27;;;;;;;;;3.00;3.00;;;;;20.64;53.58;99137.10;110027;1252;19602;-40
2023/03/09 10:26:55;;;;;;;;;2.00;2.00;;;;;20.64;53.37;99141.04;110050;1266;19894;-39
2023/03/09 10:29:22;;;;;;;;;4.00;3.00;;;;;20.63;53.37;99146.81;109993;1252;20744;-39
2023/03/09 10:31:49;;;;;;;;;4.00;4.00;;;;;20.64;53.35;99150.59;110035;1266;18616;-40
2023/03/09 10:34:17;;;;;;;;;4.00;2.00;;;;;20.67;53.54;99148.51;110019;1260;19171;-42
2023/03/09 10:36:45;;;;;;;;;2.00;2.00;;;;;20.68;53.60;99151.15;109984;1266;19311;-40
2023/03/09 10:39:12;;;;;;;;;5.00;4.00;;;;;20.68;53.65;99152.66;110048;1250;19700;-39
2023/03/09 10:41:39;;;;;;;;;3.50;3.50;;;;;20.68;53.77;99155.62;110012;1266;22242;-39
2023/03/09 10:44:07;;;;;;;;;5.00;4.00;;;;;20.72;53.71;99166.42;110025;1266;22025;-40
2023/03/09 10:46:34;;;;;;;;;2.00;2.00;;;;;20.74;53.84;99164.61;110048;1266;19556;-40
2023/03/09 10:49:02;;;;;;;;;5.00;5.00;;;;;20.73;53.44;99166.38;110004;1266;18713;-39
2023/03/09 10:51:29;;;;;;;;;3.00;3.00;;;;;20.74;53.57;99168.38;110037;1266;19510;-40
2023/03/09 10:53:58;;;;;;;;;3.00;3.00;;;;;20.75;53.03;99166.25;110035;1266;19881;-40
2023/03/09 10:56:25;;;;;;;;;2.00;2.00;;;;;20.73;52.82;99175.26;110028;1250;18677;-40
2023/03/09 10:58:52;;;;;;;;;3.00;3.00;;;;;20.70;52.85;99175.85;109982;1266;21040;-40
2023/03/09 11:01:20;;;;;;;;;3.50;3.50;;;;;20.70;53.08;99180.13;110033;1253;19631;-40
2023/03/09 11:03:47;;;;;;;;;4.00;4.00;;;;;20.72;53.28;99181.59;110040;1266;18634;-40
2023/03/09 11:06:15;;;;;;;;;2.00;2.00;;;;;20.78;53.24;99187.31;110041;1266;19352;-39
2023/03/09 11:08:42;;;;;;;;;4.00;4.00;;;;;20.79;53.12;99190.83;110082;1250;19620;-40
2023/03/09 11:11:10;;;;;;;;;4.00;4.00;;;;;20.82;53.22;99196.05;110040;1266;19966;-40
2023/03/09 11:13:37;;;;;;;;;4.00;4.00;;;;;20.81;53.73;99199.02;110006;1250;22142;-39
2023/03/09 11:16:06;;;;;;;;;3.50;3.50;;;;;20.79;53.84;99199.49;110002;1250;19561;-40
2023/03/09 11:18:33;;;;;;;;;4.00;4.00;;;;;20.78;54.06;99206.38;110046;1259;18659;-39
2023/03/09 11:21:01;;;;;;;;;2.50;2.50;;;;;20.80;54.52;99210.96;110027;1250;23016;-40
2023/03/09 11:23:28;;;;;;;;;4.00;4.00;;;;;20.81;54.31;99212.89;110023;1266;19550;-39
2023/03/09 11:25:56;;;;;;;;;4.00;4.00;;;;;20.80;54.21;99216.28;109998;1253;20475;-39
2023/03/09 11:28:23;;;;;;;;;4.00;4.00;;;;;20.84;54.49;99216.08;110035;1266;19356;-41